LFPO/ORY METAR and TAF weather

Enter ICAO airport designator
Station Type Date Time Source
LFPO METAR 2020/07/07 00:00 UTC NOAA

LFPO 070000Z 33005KT CAVOK 13/08 Q1024 NOSIG


Station Type Date Time Source
LFPO Decoded METAR 2020/07/07 00:00 UTC NOAA

Paris-Orly, France (LFPO) 48-44N 002-24E 96M
Jul 06, 2020 - 08:00 PM EDT / 2020.07.07 0000 UTC
Wind: from the NNW (330 degrees) at 6 MPH (5 KT):0
Visibility: greater than 7 mile(s):0
Temperature: 55 F (13 C)
Dew Point: 46 F (8 C)
Relative Humidity: 71%
Pressure (altimeter): 30.24 in. Hg (1024 hPa)
ob: LFPO 070000Z 33005KT CAVOK 13/08 Q1024 NOSIG
cycle: 0

Station Type Date Time Source
LFPO TAF 2020/07/06 18:21 UTC NOAA

TAF LFPO 061700Z 0618/0724 30008KT CAVOK

Example: see airport list